createdAt,value
2023-01-12T00:01:38.739Z,6.15
2023-01-12T00:04:06.122Z,7.57
2023-01-12T00:06:33.344Z,10.18
2023-01-12T00:09:02.519Z,9.40
2023-01-12T00:11:29.359Z,6.13
2023-01-12T00:13:55.795Z,6.30
2023-01-12T00:16:39.566Z,9.10
2023-01-12T00:19:13.744Z,5.50
2023-01-12T00:21:51.678Z,8.45
2023-01-12T00:24:19.236Z,6.70
2023-01-12T00:26:46.916Z,6.40
2023-01-12T00:29:14.066Z,5.18
2023-01-12T00:31:40.502Z,7.00
2023-01-12T00:34:07.023Z,8.45
2023-01-12T00:36:33.554Z,7.60
2023-01-12T00:39:00.052Z,6.63
2023-01-12T00:41:46.122Z,6.15
2023-01-12T00:44:31.089Z,9.60
2023-01-12T00:46:57.583Z,9.00
2023-01-12T00:49:24.068Z,5.03
2023-01-12T00:51:50.546Z,10.90
2023-01-12T00:54:17.046Z,10.07
2023-01-12T00:56:43.568Z,9.02
2023-01-12T00:59:10.085Z,8.20
2023-01-12T01:01:36.666Z,6.23
2023-01-12T01:04:03.232Z,11.10
2023-01-12T01:06:29.716Z,9.73
2023-01-12T01:08:56.207Z,11.25
2023-01-12T01:11:23.140Z,7.43
2023-01-12T01:13:50.091Z,7.47
2023-01-12T01:16:17.796Z,7.25
2023-01-12T01:18:44.760Z,8.95
2023-01-12T01:21:13.735Z,8.57
2023-01-12T01:23:41.452Z,11.73
2023-01-12T01:26:17.457Z,9.97
2023-01-12T01:28:44.719Z,9.38
2023-01-12T01:31:14.166Z,10.32
2023-01-12T01:33:41.787Z,8.65
2023-01-12T01:36:08.883Z,8.90
2023-01-12T01:38:36.116Z,10.57
2023-01-12T01:41:03.141Z,7.20
2023-01-12T01:43:47.672Z,8.68
2023-01-12T01:46:17.095Z,4.38
2023-01-12T01:48:44.165Z,9.55
2023-01-12T01:51:16.035Z,6.27
2023-01-12T01:53:46.953Z,9.85
2023-01-12T01:56:22.444Z,8.52
2023-01-12T01:59:15.217Z,9.18
2023-01-12T02:01:41.813Z,8.35
2023-01-12T02:04:08.870Z,5.63
2023-01-12T02:06:35.655Z,8.77
2023-01-12T02:09:16.247Z,8.05
2023-01-12T02:12:01.964Z,6.95
2023-01-12T02:14:47.013Z,6.53
2023-01-12T02:17:27.435Z,4.53
2023-01-12T02:20:15.042Z,3.90
2023-01-12T02:23:22.537Z,6.25
2023-01-12T02:25:49.020Z,4.93
2023-01-12T02:28:56.187Z,3.55
2023-01-12T02:31:42.899Z,5.57
2023-01-12T02:34:21.555Z,6.63
2023-01-12T02:37:17.275Z,8.70
2023-01-12T02:39:59.991Z,3.78
2023-01-12T02:42:41.607Z,6.43
2023-01-12T02:45:08.609Z,4.50
2023-01-12T02:48:21.953Z,4.63
2023-01-12T02:50:57.577Z,6.63
2023-01-12T02:53:43.165Z,2.72
2023-01-12T02:56:11.797Z,3.40
2023-01-12T02:58:43.870Z,2.27
2023-01-12T03:01:11.987Z,6.20
2023-01-12T03:03:39.817Z,4.05
2023-01-12T03:06:07.697Z,0.55
2023-01-12T03:08:37.422Z,3.13
2023-01-12T03:11:18.179Z,2.50
2023-01-12T03:13:56.183Z,3.55
2023-01-12T03:16:26.231Z,5.70
2023-01-12T03:19:02.213Z,3.10
2023-01-12T03:21:38.825Z,2.55
2023-01-12T03:24:11.026Z,1.53
2023-01-12T03:26:43.589Z,4.20
2023-01-12T03:29:17.102Z,3.53
2023-01-12T03:31:43.690Z,5.40
2023-01-12T03:34:10.649Z,3.42
2023-01-12T03:36:49.928Z,4.23
2023-01-12T03:39:21.797Z,5.82
2023-01-12T03:42:11.590Z,2.75
2023-01-12T03:44:58.628Z,4.10
2023-01-12T03:47:29.010Z,3.15
2023-01-12T03:50:12.813Z,5.93
2023-01-12T03:52:41.023Z,3.17
2023-01-12T03:55:11.133Z,2.63
2023-01-12T03:57:38.640Z,2.15
2023-01-12T04:00:10.743Z,3.72
2023-01-12T04:02:37.210Z,3.43
2023-01-12T04:05:05.733Z,4.60
2023-01-12T04:07:32.198Z,2.78
2023-01-12T04:09:58.740Z,3.67
2023-01-12T04:12:25.260Z,2.13
2023-01-12T04:14:51.786Z,2.57
2023-01-12T04:17:19.139Z,1.60
2023-01-12T04:19:45.725Z,0.98
2023-01-12T04:22:34.537Z,2.17
2023-01-12T04:25:01.097Z,3.17
2023-01-12T04:27:27.586Z,3.30
2023-01-12T04:29:54.059Z,2.78
2023-01-12T04:32:21.384Z,3.85
2023-01-12T04:34:48.011Z,4.32
2023-01-12T04:37:14.826Z,2.63
2023-01-12T04:39:41.277Z,2.87
2023-01-12T04:42:27.832Z,2.95
2023-01-12T04:44:54.263Z,2.60
2023-01-12T04:47:20.724Z,2.30
2023-01-12T04:49:47.184Z,2.08
2023-01-12T04:52:13.712Z,2.60
2023-01-12T04:54:40.243Z,5.63
2023-01-12T04:57:06.889Z,1.88
2023-01-12T04:59:33.376Z,2.05
2023-01-12T05:01:59.821Z,2.25
2023-01-12T05:04:26.424Z,5.00
2023-01-12T05:06:52.932Z,2.17
2023-01-12T05:09:38.021Z,2.05
2023-01-12T05:12:04.819Z,0.95
2023-01-12T05:14:31.319Z,1.10
2023-01-12T05:16:59.522Z,1.37
2023-01-12T05:19:26.010Z,2.55
2023-01-12T05:21:52.478Z,3.20
2023-01-12T05:24:19.020Z,1.40
2023-01-12T05:26:45.468Z,1.40
2023-01-12T05:29:12.402Z,6.67
2023-01-12T05:31:38.847Z,3.35
2023-01-12T05:34:05.372Z,1.88
2023-01-12T05:36:31.899Z,0.80
2023-01-12T05:38:58.351Z,2.30
2023-01-12T05:41:25.041Z,1.33
2023-01-12T05:43:51.693Z,1.98
2023-01-12T05:46:24.251Z,1.58
2023-01-12T05:48:52.230Z,3.00
2023-01-12T05:51:19.291Z,2.35
2023-01-12T05:53:45.983Z,2.23
2023-01-12T05:56:22.104Z,1.83
2023-01-12T05:58:53.779Z,2.20
2023-01-12T06:01:21.575Z,1.90
2023-01-12T06:03:53.304Z,1.60
2023-01-12T06:06:21.598Z,0.50
2023-01-12T06:08:50.624Z,3.30
2023-01-12T06:11:37.872Z,0.70
2023-01-12T06:14:05.457Z,1.50
2023-01-12T06:16:32.037Z,0.55
2023-01-12T06:18:58.629Z,0.40
2023-01-12T06:21:25.647Z,1.27
2023-01-12T06:23:52.181Z,0.55
2023-01-12T06:26:18.714Z,0.13
2023-01-12T06:28:45.253Z,1.35
2023-01-12T06:31:13.895Z,0.50
2023-01-12T06:33:40.532Z,0.47
2023-01-12T06:36:07.766Z,0.25
2023-01-12T06:38:35.451Z,0.28
2023-01-12T06:41:06.932Z,0.82
2023-01-12T06:43:33.569Z,1.37
2023-01-12T06:46:00.372Z,2.25
2023-01-12T06:48:38.807Z,0.28
2023-01-12T06:51:06.454Z,1.20
2023-01-12T06:53:32.980Z,0.88
2023-01-12T06:55:59.492Z,1.43
2023-01-12T06:58:25.978Z,0.10
2023-01-12T07:00:52.476Z,0.50
2023-01-12T07:03:20.460Z,0.73
2023-01-12T07:05:46.918Z,0.20
2023-01-12T07:08:16.072Z,1.63
2023-01-12T07:10:43.018Z,0.10
2023-01-12T07:13:09.516Z,0.57
2023-01-12T07:15:36.271Z,0.52
2023-01-12T07:18:02.983Z,0.68
2023-01-12T07:20:29.723Z,0.40
2023-01-12T07:22:56.292Z,1.10
2023-01-12T07:25:24.988Z,0.30
2023-01-12T07:27:53.502Z,0.95
2023-01-12T07:30:21.939Z,0.95
2023-01-12T07:32:49.755Z,0.37
2023-01-12T07:35:16.796Z,1.58
2023-01-12T07:37:51.828Z,0.73
2023-01-12T07:40:18.533Z,0.98
2023-01-12T07:42:45.019Z,1.70
2023-01-12T07:45:12.142Z,2.00
2023-01-12T07:47:38.980Z,1.20
2023-01-12T07:50:06.400Z,1.30
2023-01-12T07:52:32.957Z,1.45
2023-01-12T07:54:59.499Z,2.13
2023-01-12T07:57:25.982Z,2.77
2023-01-12T07:59:52.473Z,0.90
2023-01-12T08:02:19.352Z,3.42
2023-01-12T08:04:46.590Z,2.15
2023-01-12T08:07:15.283Z,1.77
2023-01-12T08:09:41.966Z,1.67
2023-01-12T08:12:08.727Z,3.47
2023-01-12T08:14:38.108Z,2.95
2023-01-12T08:17:15.156Z,1.60
2023-01-12T08:19:50.918Z,1.83
2023-01-12T08:22:23.139Z,2.93
2023-01-12T08:24:56.442Z,1.48
2023-01-12T08:27:27.465Z,3.78
2023-01-12T08:29:58.541Z,4.07
2023-01-12T08:32:27.808Z,3.65
2023-01-12T08:34:57.555Z,2.70
2023-01-12T08:37:25.655Z,3.17
2023-01-12T08:39:52.735Z,1.98
2023-01-12T08:42:20.395Z,5.55
2023-01-12T08:44:46.911Z,2.25
2023-01-12T08:47:28.418Z,3.97
2023-01-12T08:49:55.394Z,4.28
2023-01-12T08:52:22.041Z,2.40
2023-01-12T08:54:49.729Z,3.65
2023-01-12T08:57:16.985Z,3.80
2023-01-12T08:59:43.533Z,2.50
2023-01-12T09:02:14.764Z,2.92
2023-01-12T09:04:41.763Z,5.40
2023-01-12T09:07:11.960Z,3.60
2023-01-12T09:09:38.915Z,5.22
2023-01-12T09:12:05.917Z,4.90
2023-01-12T09:14:38.586Z,3.28
2023-01-12T09:17:07.029Z,2.85
2023-01-12T09:19:33.613Z,2.95
2023-01-12T09:22:00.074Z,4.25
2023-01-12T09:24:27.246Z,3.40
2023-01-12T09:26:53.719Z,3.60
2023-01-12T09:29:20.161Z,3.72
2023-01-12T09:31:46.795Z,2.17
2023-01-12T09:34:13.762Z,6.47
2023-01-12T09:36:41.064Z,5.80
2023-01-12T09:39:10.262Z,6.10
2023-01-12T09:42:02.877Z,4.32
2023-01-12T09:44:56.965Z,5.82
2023-01-12T09:47:48.574Z,8.00
2023-01-12T09:50:23.095Z,5.33
2023-01-12T09:53:05.828Z,5.57
2023-01-12T09:55:50.530Z,7.65
2023-01-12T09:58:32.097Z,10.80
2023-01-12T10:01:01.423Z,8.88
2023-01-12T10:03:35.372Z,5.93
2023-01-12T10:06:02.192Z,7.80
2023-01-12T10:08:34.275Z,8.90
2023-01-12T10:11:25.769Z,9.52
2023-01-12T10:14:13.704Z,6.07
2023-01-12T10:17:00.446Z,12.83
2023-01-12T10:19:50.684Z,7.50
2023-01-12T10:22:39.502Z,6.75
2023-01-12T10:25:13.940Z,9.13
2023-01-12T10:27:43.711Z,9.85
2023-01-12T10:30:16.932Z,7.23
2023-01-12T10:32:43.417Z,6.20
2023-01-12T10:35:20.021Z,5.88
2023-01-12T10:37:52.251Z,6.22
2023-01-12T10:40:33.174Z,6.05
2023-01-12T10:43:31.908Z,2.70
2023-01-12T10:46:04.668Z,4.13
2023-01-12T10:48:31.852Z,5.25
2023-01-12T10:51:25.250Z,5.28
2023-01-12T10:54:03.751Z,5.88
2023-01-12T10:56:37.717Z,3.63
2023-01-12T10:59:26.689Z,6.05
2023-01-12T11:02:05.669Z,3.10
2023-01-12T11:04:49.885Z,3.63
2023-01-12T11:07:31.012Z,1.77
2023-01-12T11:10:33.355Z,2.00
2023-01-12T11:13:03.695Z,3.50
2023-01-12T11:15:35.651Z,2.28
2023-01-12T11:18:20.409Z,5.00
2023-01-12T11:21:00.334Z,4.13
2023-01-12T11:23:34.119Z,2.57
2023-01-12T11:26:03.338Z,2.65
2023-01-12T11:28:44.810Z,4.97
2023-01-12T11:31:25.822Z,2.17
2023-01-12T11:34:02.015Z,4.47
2023-01-12T11:36:36.951Z,5.37
2023-01-12T11:39:07.012Z,2.53
2023-01-12T11:41:40.519Z,4.18
2023-01-12T11:44:31.257Z,5.85
2023-01-12T11:47:07.091Z,2.13
2023-01-12T11:49:41.118Z,3.00
2023-01-12T11:52:10.419Z,4.63
2023-01-12T11:54:38.450Z,4.15
2023-01-12T11:57:42.568Z,4.35
2023-01-12T12:00:49.320Z,0.70
2023-01-12T12:03:22.900Z,3.67
2023-01-12T12:05:58.480Z,2.28
2023-01-12T12:08:37.181Z,1.85
2023-01-12T12:11:24.531Z,1.55
2023-01-12T12:14:29.006Z,1.75
2023-01-12T12:17:11.385Z,1.37
2023-01-12T12:19:47.161Z,2.08
2023-01-12T12:22:22.461Z,1.88
2023-01-12T12:25:03.826Z,2.45
2023-01-12T12:27:36.522Z,0.65
2023-01-12T12:30:25.505Z,1.13
2023-01-12T12:33:07.401Z,1.60
2023-01-12T12:36:03.178Z,4.30
2023-01-12T12:38:49.978Z,1.88
2023-01-12T12:42:03.043Z,3.30
2023-01-12T12:45:16.228Z,2.20
2023-01-12T12:47:54.820Z,2.00
2023-01-12T12:50:22.510Z,2.30
2023-01-12T12:53:03.046Z,2.60
2023-01-12T12:55:30.685Z,2.33
2023-01-12T12:58:06.676Z,1.37
2023-01-12T13:00:46.624Z,1.30
2023-01-12T13:03:41.114Z,0.63
2023-01-12T13:06:31.901Z,1.27
2023-01-12T13:09:00.902Z,0.32
2023-01-12T13:11:46.069Z,0.10
2023-01-12T13:14:40.506Z,0.17
2023-01-12T13:17:19.070Z,0.10
2023-01-12T13:19:48.467Z,0.73
2023-01-12T13:22:44.668Z,0.32
2023-01-12T13:25:11.634Z,0.10
2023-01-12T13:27:55.743Z,0.00
2023-01-12T13:30:28.318Z,0.10
2023-01-12T13:32:54.743Z,0.10
2023-01-12T13:35:33.369Z,0.10
2023-01-12T13:38:33.949Z,0.83
2023-01-12T13:42:08.885Z,0.30
2023-01-12T13:44:39.816Z,0.20
2023-01-12T13:47:35.974Z,0.20
2023-01-12T13:50:03.817Z,0.40
2023-01-12T13:52:36.069Z,1.13
2023-01-12T13:55:05.030Z,2.05
2023-01-12T13:57:31.729Z,0.40
2023-01-12T14:00:09.303Z,0.65
2023-01-12T14:02:38.188Z,0.90
2023-01-12T14:05:04.690Z,0.67
2023-01-12T14:07:47.576Z,1.15
2023-01-12T14:10:31.078Z,0.20
2023-01-12T14:13:12.162Z,1.70
2023-01-12T14:16:01.966Z,1.50
2023-01-12T14:18:40.689Z,2.73
2023-01-12T14:21:29.150Z,2.00
2023-01-12T14:24:16.291Z,0.73
2023-01-12T14:26:42.976Z,1.15
2023-01-12T14:29:11.525Z,0.73
2023-01-12T14:31:43.470Z,0.87
2023-01-12T14:34:29.016Z,0.65
2023-01-12T14:36:56.210Z,0.90
2023-01-12T14:39:26.071Z,0.50
2023-01-12T14:42:13.855Z,0.50
2023-01-12T14:45:09.212Z,1.20
2023-01-12T14:47:36.208Z,0.90
2023-01-12T14:50:15.139Z,0.43
2023-01-12T14:52:44.790Z,0.47
2023-01-12T14:55:24.693Z,1.88
2023-01-12T14:57:54.917Z,0.63
2023-01-12T15:00:22.970Z,0.75
2023-01-12T15:02:52.248Z,0.65
2023-01-12T15:05:25.777Z,1.10
2023-01-12T15:08:04.299Z,0.50
2023-01-12T15:10:39.682Z,0.47
2023-01-12T15:13:26.893Z,0.45
2023-01-12T15:16:13.989Z,0.47
2023-01-12T15:19:00.017Z,0.40
2023-01-12T15:21:46.424Z,0.45
2023-01-12T15:24:46.705Z,1.23
2023-01-12T15:27:21.315Z,1.05
2023-01-12T15:29:48.280Z,0.50
2023-01-12T15:32:21.902Z,0.57
2023-01-12T15:34:48.968Z,0.73
2023-01-12T15:37:17.266Z,0.50
2023-01-12T15:39:44.139Z,0.40
2023-01-12T15:42:16.266Z,0.70
2023-01-12T15:44:46.932Z,0.73
2023-01-12T15:47:16.128Z,1.40
2023-01-12T15:49:48.334Z,0.67
2023-01-12T15:52:25.823Z,2.05
2023-01-12T15:54:52.559Z,0.47
2023-01-12T15:57:19.032Z,0.85
2023-01-12T15:59:45.557Z,1.42
2023-01-12T16:02:24.803Z,1.27
2023-01-12T16:04:52.122Z,0.80
2023-01-12T16:07:18.687Z,1.15
2023-01-12T16:09:48.063Z,0.73
2023-01-12T16:12:15.262Z,0.63
2023-01-12T16:14:41.718Z,0.40
2023-01-12T16:17:08.227Z,0.57
2023-01-12T16:19:41.146Z,2.05
2023-01-12T16:22:26.420Z,0.60
2023-01-12T16:24:55.260Z,0.57
2023-01-12T16:27:24.855Z,0.40
2023-01-12T16:29:51.517Z,1.10
2023-01-12T16:32:21.734Z,1.70
2023-01-12T16:34:48.220Z,0.47
2023-01-12T16:37:15.904Z,2.17
2023-01-12T16:39:42.998Z,0.60
2023-01-12T16:42:10.666Z,0.70
2023-01-12T16:44:39.101Z,1.98
2023-01-12T16:47:13.232Z,0.40
2023-01-12T16:49:40.487Z,1.27
2023-01-12T16:52:08.981Z,1.00
2023-01-12T16:54:41.815Z,0.60
2023-01-12T16:57:14.070Z,0.60
2023-01-12T16:59:41.384Z,1.98
2023-01-12T17:02:13.446Z,0.47
2023-01-12T17:04:42.277Z,0.67
2023-01-12T17:07:09.291Z,0.60
2023-01-12T17:09:37.221Z,0.52
2023-01-12T17:12:04.317Z,0.60
2023-01-12T17:14:33.499Z,0.43
2023-01-12T17:17:03.927Z,0.60
2023-01-12T17:19:32.367Z,0.90
2023-01-12T17:22:01.455Z,0.65
2023-01-12T17:24:32.014Z,0.50
2023-01-12T17:26:59.080Z,1.52
2023-01-12T17:29:26.876Z,0.60
2023-01-12T17:31:56.658Z,0.80
2023-01-12T17:34:23.373Z,2.45
2023-01-12T17:36:49.945Z,0.98
2023-01-12T17:39:16.626Z,1.10
2023-01-12T17:42:01.778Z,0.40
2023-01-12T17:44:28.315Z,2.38
2023-01-12T17:46:54.897Z,1.40
2023-01-12T17:49:21.560Z,0.60
2023-01-12T17:51:48.154Z,0.40
2023-01-12T17:54:15.571Z,0.73
2023-01-12T17:56:42.643Z,1.00
2023-01-12T17:59:16.212Z,0.75
2023-01-12T18:01:43.054Z,1.15
2023-01-12T18:04:09.700Z,0.70
2023-01-12T18:06:36.380Z,1.50
2023-01-12T18:09:03.529Z,0.55
2023-01-12T18:11:31.298Z,1.52
2023-01-12T18:13:59.874Z,1.77
2023-01-12T18:16:27.049Z,1.00
2023-01-12T18:18:53.866Z,0.80
2023-01-12T18:21:23.553Z,0.90
2023-01-12T18:23:51.225Z,1.13
2023-01-12T18:26:27.872Z,1.80
2023-01-12T18:28:55.958Z,0.80
2023-01-12T18:31:37.434Z,0.53
2023-01-12T18:34:06.453Z,0.85
2023-01-12T18:36:38.833Z,1.80
2023-01-12T18:39:08.520Z,1.13
2023-01-12T18:41:56.493Z,1.23
2023-01-12T18:44:24.274Z,1.50
2023-01-12T18:47:09.415Z,1.15
2023-01-12T18:49:37.002Z,0.98
2023-01-12T18:52:22.552Z,1.33
2023-01-12T18:54:51.681Z,0.75
2023-01-12T18:57:22.463Z,1.50
2023-01-12T18:59:51.685Z,2.97
2023-01-12T19:02:19.838Z,3.38
2023-01-12T19:04:50.701Z,1.40
2023-01-12T19:07:51.067Z,2.92
2023-01-12T19:10:18.011Z,2.27
2023-01-12T19:12:49.187Z,1.08
2023-01-12T19:15:35.975Z,2.08
2023-01-12T19:18:02.532Z,1.95
2023-01-12T19:20:30.311Z,0.90
2023-01-12T19:23:15.501Z,2.67
2023-01-12T19:26:00.584Z,1.50
2023-01-12T19:28:35.131Z,1.55
2023-01-12T19:31:10.891Z,3.42
2023-01-12T19:33:38.671Z,2.05
2023-01-12T19:36:10.285Z,1.93
2023-01-12T19:38:37.698Z,1.92
2023-01-12T19:41:33.340Z,1.83
2023-01-12T19:44:01.301Z,1.30
2023-01-12T19:46:28.165Z,1.20
2023-01-12T19:48:54.727Z,2.77
2023-01-12T19:51:21.183Z,2.30
2023-01-12T19:53:47.728Z,3.05
2023-01-12T19:56:14.782Z,2.22
2023-01-12T19:58:42.088Z,1.48
2023-01-12T20:01:09.094Z,2.30
2023-01-12T20:03:36.361Z,2.00
2023-01-12T20:06:07.196Z,1.65
2023-01-12T20:08:33.892Z,1.40
2023-01-12T20:11:03.263Z,1.05
2023-01-12T20:13:32.494Z,1.80
2023-01-12T20:15:59.097Z,1.10
2023-01-12T20:18:25.778Z,1.77
2023-01-12T20:20:53.294Z,1.10
2023-01-12T20:23:20.380Z,1.45
2023-01-12T20:25:46.914Z,1.03
2023-01-12T20:28:14.425Z,1.05
2023-01-12T20:30:42.796Z,2.42
2023-01-12T20:33:10.373Z,1.70
2023-01-12T20:35:40.394Z,3.17
2023-01-12T20:38:08.620Z,1.53
2023-01-12T20:40:35.139Z,6.55
2023-01-12T20:43:01.661Z,2.17
2023-01-12T20:45:28.172Z,2.33
2023-01-12T20:47:55.847Z,3.38
2023-01-12T20:50:23.284Z,2.63
2023-01-12T20:52:50.987Z,1.58
2023-01-12T20:55:17.574Z,2.35
2023-01-12T20:57:44.345Z,3.72
2023-01-12T21:00:11.831Z,2.80
2023-01-12T21:02:38.342Z,2.33
2023-01-12T21:05:05.166Z,2.35
2023-01-12T21:07:31.734Z,1.40
2023-01-12T21:09:58.244Z,0.40
2023-01-12T21:12:27.375Z,0.98
2023-01-12T21:14:54.596Z,0.83
2023-01-12T21:17:21.720Z,2.53
2023-01-12T21:19:49.150Z,1.23
2023-01-12T21:22:16.533Z,1.52
2023-01-12T21:24:43.076Z,1.88
2023-01-12T21:27:09.681Z,1.13
2023-01-12T21:29:36.158Z,1.05
2023-01-12T21:32:02.933Z,1.33
2023-01-12T21:34:29.482Z,2.05
2023-01-12T21:36:56.047Z,0.63
2023-01-12T21:39:22.585Z,1.80
2023-01-12T21:42:07.527Z,1.15
2023-01-12T21:44:33.985Z,1.50
2023-01-12T21:47:00.449Z,0.60
2023-01-12T21:49:26.979Z,2.00
2023-01-12T21:51:53.583Z,1.30
2023-01-12T21:54:20.131Z,1.40
2023-01-12T21:56:46.592Z,2.15
2023-01-12T21:59:13.307Z,2.00
2023-01-12T22:01:39.963Z,5.35
2023-01-12T22:04:06.723Z,3.10
2023-01-12T22:06:33.221Z,1.08
2023-01-12T22:09:00.010Z,1.83
2023-01-12T22:11:26.535Z,4.30
2023-01-12T22:13:53.033Z,6.15
2023-01-12T22:16:19.543Z,4.33
2023-01-12T22:18:52.271Z,7.80
2023-01-12T22:21:20.835Z,5.90
2023-01-12T22:23:48.030Z,6.85
2023-01-12T22:26:15.583Z,7.28
2023-01-12T22:28:44.353Z,7.40
2023-01-12T22:31:12.761Z,9.70
2023-01-12T22:33:39.791Z,6.95
2023-01-12T22:36:07.634Z,12.43
2023-01-12T22:38:34.839Z,12.52
2023-01-12T22:41:05.447Z,8.40
2023-01-12T22:43:32.175Z,6.28
2023-01-12T22:45:58.744Z,7.88
2023-01-12T22:48:26.592Z,12.52
2023-01-12T22:50:54.674Z,8.93
2023-01-12T22:53:23.948Z,8.80
2023-01-12T22:55:51.424Z,11.13
2023-01-12T22:58:18.306Z,10.35
2023-01-12T23:00:45.413Z,8.50
2023-01-12T23:03:13.638Z,9.55
2023-01-12T23:05:48.336Z,9.27
2023-01-12T23:08:16.504Z,14.38
2023-01-12T23:10:44.441Z,13.63
2023-01-12T23:13:19.852Z,9.07
2023-01-12T23:15:53.443Z,7.35
2023-01-12T23:18:22.338Z,8.90
2023-01-12T23:20:49.308Z,10.75
2023-01-12T23:23:19.707Z,8.43
2023-01-12T23:25:47.416Z,12.35
2023-01-12T23:28:14.746Z,13.00
2023-01-12T23:30:42.288Z,9.63
2023-01-12T23:33:09.641Z,9.27
2023-01-12T23:35:39.049Z,7.63
2023-01-12T23:38:07.130Z,8.80
2023-01-12T23:40:33.765Z,10.68
2023-01-12T23:43:00.628Z,8.97
2023-01-12T23:45:27.515Z,9.00
2023-01-12T23:47:53.979Z,10.35
2023-01-12T23:50:20.813Z,13.13
2023-01-12T23:52:49.938Z,12.80
2023-01-12T23:55:16.499Z,13.53
2023-01-12T23:57:45.221Z,10.75
